createdAt,value
2022-09-11T00:02:22.516Z,21.00
2022-09-11T00:07:57.475Z,20.50
2022-09-11T00:10:25.025Z,20.70
2022-09-11T00:12:53.111Z,20.50
2022-09-11T00:15:20.475Z,20.90
2022-09-11T00:17:48.230Z,20.50
2022-09-11T00:20:15.691Z,20.90
2022-09-11T00:22:43.393Z,20.00
2022-09-11T00:25:10.774Z,20.80
2022-09-11T00:27:38.273Z,20.40
2022-09-11T00:30:06.164Z,20.40
2022-09-11T00:32:33.621Z,20.40
2022-09-11T00:38:16.610Z,20.40
2022-09-11T00:40:48.231Z,20.80
2022-09-11T00:43:17.974Z,20.40
2022-09-11T00:48:58.448Z,20.40
2022-09-11T00:54:35.617Z,20.40
2022-09-11T00:57:06.104Z,19.90
2022-09-11T00:59:34.993Z,20.40
2022-09-11T01:02:02.714Z,20.50
2022-09-11T01:04:30.754Z,20.40
2022-09-11T01:07:00.114Z,20.40
2022-09-11T01:09:29.349Z,20.50
2022-09-11T01:12:09.349Z,20.40
2022-09-11T01:14:36.729Z,20.40
2022-09-11T01:17:57.919Z,20.80
2022-09-11T01:24:10.719Z,20.40
2022-09-11T01:29:52.545Z,20.40
2022-09-11T01:53:50.248Z,20.10
2022-09-11T05:30:33.744Z,19.40
2022-09-11T05:45:34.723Z,19.50
2022-09-11T05:48:03.363Z,19.50
2022-09-11T05:50:32.649Z,19.50
2022-09-11T05:53:00.654Z,19.50
2022-09-11T05:55:29.187Z,19.50
2022-09-11T05:57:56.934Z,19.60
2022-09-11T06:00:24.271Z,19.60
2022-09-11T06:02:54.534Z,19.60
2022-09-11T06:05:24.433Z,19.60
2022-09-11T06:07:51.802Z,19.60
2022-09-11T06:10:19.510Z,19.60
2022-09-11T06:12:46.826Z,19.60
2022-09-11T06:15:36.342Z,19.70
2022-09-11T06:18:03.522Z,19.70
2022-09-11T06:20:32.286Z,19.80
2022-09-11T06:23:00.787Z,19.80
2022-09-11T06:25:28.058Z,19.90
2022-09-11T06:27:56.376Z,19.90
2022-09-11T06:30:24.184Z,20.00
2022-09-11T06:32:51.886Z,20.00
2022-09-11T06:35:21.303Z,20.10
2022-09-11T06:37:48.985Z,20.20
2022-09-11T06:40:18.050Z,20.30
2022-09-11T06:42:45.968Z,20.90
2022-09-11T06:45:13.933Z,20.50
2022-09-11T07:20:01.131Z,23.20
2022-09-11T07:22:31.038Z,23.70
2022-09-11T07:25:02.797Z,24.70
2022-09-11T07:27:34.004Z,24.40
2022-09-11T07:30:03.250Z,24.90
2022-09-11T07:32:33.493Z,25.30
2022-09-11T07:35:02.390Z,26.20
2022-09-11T07:37:29.821Z,26.40
2022-09-11T07:39:57.247Z,26.90
2022-09-11T07:42:28.956Z,27.10
2022-09-11T07:44:57.600Z,26.80
2022-09-11T07:47:26.253Z,26.90
2022-09-11T07:49:54.310Z,27.00
2022-09-11T07:52:21.622Z,27.20
2022-09-11T07:54:52.798Z,27.40
2022-09-11T07:57:24.170Z,27.90
2022-09-11T07:59:51.734Z,28.00
2022-09-11T08:02:20.021Z,28.30
2022-09-11T08:04:47.524Z,29.10
2022-09-11T08:07:15.102Z,28.80
2022-09-11T08:09:42.557Z,28.90
2022-09-11T08:12:11.909Z,28.90
2022-09-11T08:14:39.781Z,28.90
2022-09-11T08:17:20.318Z,29.00
2022-09-11T08:19:48.295Z,29.20
2022-09-11T08:22:16.040Z,29.90
2022-09-11T08:24:45.839Z,29.90
2022-09-11T08:27:17.945Z,30.70
2022-09-11T08:29:46.331Z,30.40
2022-09-11T08:32:14.216Z,30.50
2022-09-11T08:34:42.307Z,30.60
2022-09-11T08:37:09.648Z,30.60
2022-09-11T08:39:37.869Z,31.10
2022-09-11T08:42:14.982Z,30.60
2022-09-11T08:44:54.030Z,30.50
2022-09-11T08:47:52.222Z,30.90
2022-09-11T08:50:32.558Z,30.30
2022-09-11T08:53:02.982Z,30.00
2022-09-11T08:55:39.383Z,30.30
2022-09-11T08:58:33.652Z,29.80
2022-09-11T09:01:24.030Z,29.60
2022-09-11T09:04:18.834Z,29.50
2022-09-11T09:07:10.635Z,29.30
2022-09-11T09:09:55.794Z,29.30
2022-09-11T09:12:37.118Z,29.40
2022-09-11T09:15:42.322Z,29.60
2022-09-11T09:18:33.404Z,29.90
2022-09-11T09:21:15.817Z,30.00
2022-09-11T09:23:56.061Z,30.20
2022-09-11T09:26:29.940Z,30.30
2022-09-11T09:29:02.777Z,30.30
2022-09-11T09:31:31.283Z,30.40
2022-09-11T09:34:04.706Z,30.50
2022-09-11T09:36:45.534Z,30.70
2022-09-11T09:39:18.540Z,30.70
2022-09-11T09:42:13.002Z,30.40
2022-09-11T09:45:02.398Z,30.30
2022-09-11T09:47:30.063Z,30.30
2022-09-11T09:50:00.553Z,30.20
2022-09-11T09:52:34.084Z,30.10
2022-09-11T09:55:05.520Z,30.20
2022-09-11T09:57:35.122Z,30.20
2022-09-11T10:00:06.583Z,30.20
2022-09-11T10:02:45.576Z,30.20
2022-09-11T10:05:13.592Z,30.10
2022-09-11T10:07:56.839Z,30.20
2022-09-11T10:10:34.730Z,30.10
2022-09-11T10:13:19.086Z,30.00
2022-09-11T10:15:51.008Z,29.90
2022-09-11T10:18:42.528Z,29.70
2022-09-11T10:21:19.837Z,29.70
2022-09-11T10:23:57.036Z,29.70
2022-09-11T10:26:27.126Z,29.70
2022-09-11T10:28:58.256Z,29.60
2022-09-11T10:31:26.254Z,29.70
2022-09-11T10:34:00.861Z,29.40
2022-09-11T10:36:29.700Z,29.30
2022-09-11T10:38:59.730Z,29.30
2022-09-11T10:41:32.109Z,29.30
2022-09-11T10:44:03.104Z,29.00
2022-09-11T10:46:38.080Z,29.30
2022-09-11T10:49:05.339Z,28.70
2022-09-11T10:51:54.699Z,28.50
2022-09-11T10:54:45.819Z,28.40
2022-09-11T10:57:27.933Z,28.20
2022-09-11T11:00:11.189Z,28.60
2022-09-11T11:02:48.807Z,27.90
2022-09-11T11:05:40.492Z,27.80
2022-09-11T11:08:39.100Z,27.70
2022-09-11T11:11:28.981Z,27.50
2022-09-11T11:14:39.290Z,27.40
2022-09-11T11:17:28.549Z,27.30
2022-09-11T11:20:21.114Z,27.30
2022-09-11T11:22:56.087Z,27.20
2022-09-11T11:25:27.810Z,27.20
2022-09-11T11:28:11.766Z,27.10
2022-09-11T11:31:12.144Z,27.10
2022-09-11T11:34:16.022Z,27.30
2022-09-11T11:36:55.834Z,27.00
2022-09-11T11:39:23.128Z,27.50
2022-09-11T11:42:10.830Z,27.70
2022-09-11T11:44:54.946Z,27.10
2022-09-11T11:47:30.699Z,27.10
2022-09-11T11:50:03.721Z,27.40
2022-09-11T11:52:31.401Z,27.20
2022-09-11T11:55:17.737Z,27.20
2022-09-11T11:58:14.509Z,27.20
2022-09-11T12:00:49.461Z,27.30
2022-09-11T12:03:32.640Z,27.30
2022-09-11T12:06:00.226Z,27.40
2022-09-11T12:08:27.652Z,27.80
2022-09-11T12:11:02.341Z,27.40
2022-09-11T12:13:33.858Z,27.40
2022-09-11T12:16:11.050Z,27.40
2022-09-11T12:18:40.070Z,27.40
2022-09-11T12:21:22.749Z,27.50
2022-09-11T12:23:50.174Z,27.50
2022-09-11T12:26:22.285Z,28.10
2022-09-11T12:29:13.989Z,28.10
2022-09-11T12:31:50.662Z,27.60
2022-09-11T12:34:39.523Z,28.00
2022-09-11T12:37:14.822Z,28.20
2022-09-11T12:39:53.208Z,27.80
2022-09-11T12:42:23.669Z,28.30
2022-09-11T12:44:50.962Z,27.90
2022-09-11T12:47:28.086Z,27.80
2022-09-11T12:50:17.873Z,27.80
2022-09-11T12:52:45.157Z,27.80
2022-09-11T12:55:39.730Z,27.80
2022-09-11T12:58:19.372Z,27.90
2022-09-11T13:01:00.070Z,27.90
2022-09-11T13:03:28.982Z,27.90
2022-09-11T13:06:04.659Z,28.00
2022-09-11T13:08:47.002Z,27.90
2022-09-11T13:11:43.913Z,28.50
2022-09-11T13:14:28.246Z,27.90
2022-09-11T13:17:02.764Z,27.90
2022-09-11T13:19:35.754Z,27.80
2022-09-11T13:22:30.966Z,27.90
2022-09-11T13:25:16.409Z,27.90
2022-09-11T13:27:53.242Z,28.00
2022-09-11T13:30:22.958Z,27.80
2022-09-11T13:33:01.865Z,27.70
2022-09-11T13:35:30.494Z,27.60
2022-09-11T13:38:02.604Z,27.60
2022-09-11T13:40:39.380Z,28.00
2022-09-11T13:44:27.186Z,27.90
2022-09-11T14:01:27.806Z,27.50
2022-09-11T14:09:01.981Z,27.00
2022-09-11T14:19:45.983Z,27.40
2022-09-11T14:22:16.258Z,27.30
2022-09-11T14:24:55.778Z,27.20
2022-09-11T14:27:43.483Z,27.70
2022-09-11T14:30:43.926Z,27.10
2022-09-11T14:33:23.902Z,27.40
2022-09-11T14:35:54.453Z,27.90
2022-09-11T14:38:23.470Z,27.30
2022-09-11T14:40:58.870Z,27.40
2022-09-11T14:43:32.686Z,27.40
2022-09-11T14:46:01.620Z,27.40
2022-09-11T14:48:30.780Z,28.00
2022-09-11T14:50:58.635Z,27.40
2022-09-11T14:53:34.530Z,27.90
2022-09-11T14:56:03.330Z,27.50
2022-09-11T14:58:31.117Z,27.50
2022-09-11T15:00:58.906Z,28.20
2022-09-11T15:03:26.801Z,27.60
2022-09-11T15:05:56.757Z,28.20
2022-09-11T15:08:24.997Z,27.80
2022-09-11T15:10:53.549Z,27.80
2022-09-11T15:13:21.585Z,27.70
2022-09-11T15:15:49.484Z,28.20
2022-09-11T15:18:18.472Z,28.00
2022-09-11T15:20:45.820Z,27.80
2022-09-11T15:23:13.287Z,27.40
2022-09-11T15:25:41.251Z,27.40
2022-09-11T15:28:10.185Z,27.40
2022-09-11T15:30:38.375Z,27.90
2022-09-11T15:33:05.904Z,27.70
2022-09-11T15:35:33.416Z,27.20
2022-09-11T15:38:00.789Z,27.10
2022-09-11T15:40:29.166Z,27.40
2022-09-11T15:42:57.127Z,26.90
2022-09-11T15:45:24.828Z,27.30
2022-09-11T15:47:52.813Z,27.40
2022-09-11T15:50:24.562Z,26.70
2022-09-11T15:52:51.946Z,27.00
2022-09-11T15:55:19.302Z,27.30
2022-09-11T15:57:46.634Z,26.60
2022-09-11T16:00:15.911Z,26.50
2022-09-11T16:02:43.462Z,26.50
2022-09-11T16:05:10.894Z,26.70
2022-09-11T16:07:38.341Z,26.50
2022-09-11T16:10:06.043Z,26.50
2022-09-11T16:12:34.473Z,26.50
2022-09-11T16:15:02.007Z,26.60
2022-09-11T16:17:32.242Z,27.10
2022-09-11T16:19:59.903Z,26.70
2022-09-11T16:22:31.243Z,26.70
2022-09-11T16:24:59.325Z,26.30
2022-09-11T16:27:26.677Z,26.80
2022-09-11T16:30:39.289Z,26.20
2022-09-11T16:32:41.945Z,26.10
2022-09-11T16:35:13.459Z,26.10
2022-09-11T16:37:41.218Z,26.70
2022-09-11T16:40:09.585Z,26.10
2022-09-11T16:42:37.158Z,26.10
2022-09-11T16:45:04.890Z,26.00
2022-09-11T16:47:32.366Z,26.10
2022-09-11T16:50:08.128Z,26.40
2022-09-11T16:52:36.196Z,26.10
2022-09-11T16:55:06.241Z,26.10
2022-09-11T16:57:34.427Z,26.00
2022-09-11T17:00:02.596Z,26.10
2022-09-11T17:02:30.238Z,26.10
2022-09-11T17:04:57.570Z,26.10
2022-09-11T17:07:24.930Z,26.70
2022-09-11T17:09:52.217Z,26.40
2022-09-11T17:12:19.554Z,26.60
2022-09-11T17:14:46.912Z,26.00
2022-09-11T17:17:14.317Z,26.00
2022-09-11T17:19:41.837Z,26.00
2022-09-11T17:22:10.464Z,26.30
2022-09-11T17:24:38.765Z,25.90
2022-09-11T17:27:06.214Z,26.00
2022-09-11T17:29:33.814Z,26.40
2022-09-11T17:32:26.156Z,25.90
2022-09-11T17:34:48.650Z,25.90
2022-09-11T17:37:16.105Z,25.90
2022-09-11T17:39:44.105Z,26.30
2022-09-11T17:42:13.396Z,26.40
2022-09-11T17:44:41.344Z,25.80
2022-09-11T17:47:09.385Z,25.80
2022-09-11T17:49:37.867Z,25.70
2022-09-11T17:52:05.309Z,26.30
2022-09-11T17:54:33.068Z,25.60
2022-09-11T17:57:00.668Z,26.00
2022-09-11T17:59:28.142Z,25.60
2022-09-11T18:01:55.873Z,25.50
2022-09-11T18:04:23.495Z,25.80
2022-09-11T18:06:51.268Z,25.60
2022-09-11T18:09:19.834Z,25.90
2022-09-11T18:11:49.739Z,25.30
2022-09-11T18:14:18.623Z,25.70
2022-09-11T18:16:47.224Z,25.70
2022-09-11T18:19:16.371Z,25.10
2022-09-11T18:21:49.254Z,25.00
2022-09-11T18:24:22.222Z,24.90
2022-09-11T18:26:57.260Z,24.90
2022-09-11T18:29:30.035Z,24.80
2022-09-11T18:31:59.891Z,25.40
2022-09-11T18:34:28.343Z,24.70
2022-09-11T18:36:56.040Z,25.10
2022-09-11T18:39:23.694Z,24.60
2022-09-11T18:41:54.557Z,25.10
2022-09-11T18:44:23.576Z,24.40
2022-09-11T18:46:54.763Z,25.00
2022-09-11T18:49:22.753Z,24.30
2022-09-11T18:51:50.759Z,24.20
2022-09-11T18:54:20.885Z,24.10
2022-09-11T18:56:50.206Z,24.50
2022-09-11T18:59:20.267Z,24.30
2022-09-11T19:01:48.271Z,23.80
2022-09-11T19:04:16.832Z,23.80
2022-09-11T19:06:45.139Z,24.30
2022-09-11T19:09:13.298Z,23.70
2022-09-11T19:11:41.679Z,23.60
2022-09-11T19:18:00.202Z,23.90
2022-09-11T19:21:17.492Z,23.90
2022-09-11T19:23:53.806Z,22.90
2022-09-11T19:26:29.159Z,23.40
2022-09-11T19:29:00.641Z,23.20
2022-09-11T19:31:29.980Z,23.30
2022-09-11T19:34:01.453Z,23.20
2022-09-11T19:36:32.067Z,23.50
2022-09-11T19:39:00.803Z,23.10
2022-09-11T19:41:31.120Z,23.50
2022-09-11T19:44:03.315Z,23.00
2022-09-11T19:46:32.991Z,22.90
2022-09-11T19:49:03.128Z,23.50
2022-09-11T19:51:33.911Z,23.30
2022-09-11T19:54:03.997Z,23.00
2022-09-11T19:56:36.328Z,22.70
2022-09-11T19:59:05.874Z,23.10
2022-09-11T20:01:40.762Z,23.00
2022-09-11T20:04:37.948Z,22.60
2022-09-11T20:07:37.818Z,23.00
2022-09-11T20:10:07.096Z,22.50
2022-09-11T20:12:48.305Z,22.50
2022-09-11T20:15:46.123Z,22.50
2022-09-11T20:19:28.803Z,22.40
2022-09-11T20:22:42.302Z,22.70
2022-09-11T20:25:20.873Z,22.30
2022-09-11T20:28:10.408Z,22.60
2022-09-11T20:31:12.219Z,22.20
2022-09-11T20:34:15.170Z,22.20
2022-09-11T20:37:10.161Z,22.10
2022-09-11T20:40:06.600Z,22.50
2022-09-11T20:43:01.290Z,22.10
2022-09-11T20:46:09.567Z,21.60
2022-09-11T20:49:14.568Z,22.00
2022-09-11T20:52:14.247Z,22.00
2022-09-11T20:55:15.340Z,21.50
2022-09-11T21:01:12.221Z,22.30
2022-09-11T21:04:52.966Z,22.30
2022-09-11T21:07:54.512Z,21.90
2022-09-11T21:14:40.975Z,22.20
2022-09-11T21:22:35.911Z,21.10
2022-09-11T21:34:37.046Z,21.50
2022-09-11T21:37:29.035Z,21.50
2022-09-11T21:43:53.028Z,21.30
2022-09-11T21:46:23.991Z,21.70
2022-09-11T21:48:58.698Z,21.30
2022-09-11T21:51:40.955Z,21.40
2022-09-11T21:54:20.187Z,21.20
2022-09-11T21:56:58.744Z,21.60
2022-09-11T21:59:40.685Z,21.20
2022-09-11T22:02:26.309Z,21.50
2022-09-11T22:05:12.621Z,21.10
2022-09-11T22:12:01.252Z,21.00
2022-09-11T22:14:28.738Z,20.90
2022-09-11T22:16:56.094Z,20.90
2022-09-11T22:19:23.918Z,20.80
2022-09-11T22:21:51.285Z,20.80
2022-09-11T22:24:19.605Z,20.70
2022-09-11T22:26:46.861Z,20.60
2022-09-11T22:29:14.505Z,20.60
2022-09-11T22:31:41.777Z,20.60
2022-09-11T22:34:09.508Z,20.50
2022-09-11T22:36:41.981Z,20.50
2022-09-11T22:39:09.810Z,20.50
2022-09-11T22:41:37.116Z,20.50
2022-09-11T22:44:04.460Z,20.40
2022-09-11T22:46:32.031Z,20.40
2022-09-11T22:48:59.413Z,20.30
2022-09-11T22:51:27.798Z,20.30
2022-09-11T22:53:55.865Z,20.30
2022-09-11T22:56:23.222Z,20.20
2022-09-11T22:58:50.523Z,20.20
2022-09-11T23:01:22.232Z,20.20
2022-09-11T23:03:53.174Z,20.20
2022-09-11T23:06:38.877Z,20.10
2022-09-11T23:09:09.841Z,20.10
2022-09-11T23:11:37.113Z,20.10
2022-09-11T23:14:05.277Z,20.10
2022-09-11T23:16:32.600Z,20.00
2022-09-11T23:19:02.314Z,20.00
2022-09-11T23:21:31.393Z,20.00
2022-09-11T23:23:59.940Z,20.00
2022-09-11T23:26:29.562Z,20.00
2022-09-11T23:28:57.953Z,19.90
2022-09-11T23:31:28.592Z,19.90
2022-09-11T23:34:00.039Z,19.90
2022-09-11T23:36:28.957Z,19.80
2022-09-11T23:38:56.743Z,19.80
2022-09-11T23:41:25.332Z,19.80
2022-09-11T23:43:52.814Z,19.80
2022-09-11T23:46:20.153Z,19.80
2022-09-11T23:48:47.865Z,19.80
2022-09-11T23:51:15.532Z,19.80
2022-09-11T23:53:44.985Z,19.70
2022-09-11T23:56:14.296Z,19.60
2022-09-11T23:58:42.614Z,19.60
